Dobrodošli na spletni strani vremenske postaje Senovo. Vse informacije so informativnega značaja, saj vremenska postaja ni del državne mreže meteoroloških postaj. AKTUALNIH OBVESTIL NI.


Posebna pozornost v zvezi z vremenskimi dogajanji ni potrebna.    Posebna pozornost v zvezi z vremenskimi dogajanji ni potrebna.

Pogled proti Armezu več informacij Pogled proti Armezu


Bohor več informacij Bohor


Radar strel več informacij blitzortung!


Radar padavin več informacij rain snow radar


Obiščite še:

Template documentation
and downloads

And another site



Weather Underground, zgodovina - Tekstovno

Dnevni povzetek za Januar 6, 2017 Enote:  Angleško    Metrično   Obe
« Predhodni Dan
Naslednji Dan »
Dnevni Tedenski Mesečni Letni Po meri
  Višja: Nižja: Povprečje:
Temperatura: TemperatureC °F -10.4 °F -5.3 °F
Točka rosišča: DewpointC °F -20.1 °F -16.7 °F
Vlažnost: Humidity % 29 % 40 %
Hitrost vetra: WindSpeedKMH mph 1.8 mph 8.4 mph
Sunki vetra: WindSpeedGustKMH mph - -
Veter:- - East
Zračni tlak: PressurehPa in 1024.9 in -
Padavine: 0.0 in    
Historical Graphs
 
 
Tabelarni podarki za Januar 6, 2017
Čas Temperatura Točka rosišča Zračni tlak Veter Hitrost vetra Sunki vetra Vlažnost Intenziteta padavin (urna)
TemperatureC °F DewpointC °F PressurehPa in Calm     Humidity % HourlyPrecipMM in
00:04 -3.2 °F -14.1 °F 1024.9 in North 8.5 mph 16.6 mph 43 % 0.0 in
00:09 -3.3 °F -14.1 °F 1024.9 in East 8.7 mph 18.0 mph 43 % 0.0 in
00:14 -3.4 °F -14.2 °F 1024.9 in ESE 6.8 mph 18.0 mph 43 % 0.0 in
00:19 -3.4 °F -14.2 °F 1024.9 in ENE 5.8 mph 11.9 mph 43 % 0.0 in
00:24 -3.5 °F -14.3 °F 1024.9 in NNE 6.9 mph 16.3 mph 43 % 0.0 in
00:29 -3.5 °F -14.3 °F 1024.9 in NE 7.9 mph 16.3 mph 43 % 0.0 in
00:34 -3.5 °F -14.3 °F 1024.9 in ENE 10.0 mph 18.0 mph 43 % 0.0 in
00:39 -3.5 °F -14.3 °F 1024.9 in ENE 10.5 mph 18.0 mph 43 % 0.0 in
00:44 -3.5 °F -14.3 °F 1024.9 in NE 8.7 mph 15.8 mph 43 % 0.0 in
00:49 -3.5 °F -14.3 °F 1024.9 in NE 6.9 mph 13.0 mph 43 % 0.0 in
00:54 -3.5 °F -14.3 °F 1024.9 in NE 9.7 mph 20.1 mph 43 % 0.0 in
00:59 -3.5 °F -14.0 °F 1024.9 in ENE 10.3 mph 20.1 mph 44 % 0.0 in
01:04 -3.6 °F -14.1 °F 1024.9 in East 7.2 mph 12.6 mph 44 % 0.0 in
01:09 -3.7 °F -14.2 °F 1024.9 in ENE 7.7 mph 16.3 mph 44 % 0.0 in
01:14 -3.7 °F -14.2 °F 1024.9 in ENE 8.7 mph 17.7 mph 44 % 0.0 in
01:19 -3.8 °F -14.0 °F 1024.9 in ENE 9.5 mph 21.2 mph 45 % 0.0 in
01:24 -3.9 °F -14.1 °F 1024.9 in ENE 10.1 mph 21.2 mph 45 % 0.0 in
01:29 -4.0 °F -13.9 °F 1026.0 in East 9.5 mph 20.9 mph 46 % 0.0 in
01:34 -4.1 °F -14.0 °F 1026.0 in ENE 10.1 mph 26.2 mph 46 % 0.0 in
01:39 -4.2 °F -14.1 °F 1026.0 in ENE 9.2 mph 26.2 mph 46 % 0.0 in
01:44 -4.2 °F -14.1 °F 1026.0 in ENE 9.8 mph 23.0 mph 46 % 0.0 in
01:49 -4.3 °F -14.2 °F 1026.0 in ENE 10.5 mph 20.9 mph 46 % 0.0 in
01:54 -4.4 °F -14.3 °F 1026.0 in ENE 8.5 mph 15.4 mph 46 % 0.0 in
01:59 -4.5 °F -14.4 °F 1026.0 in ENE 9.0 mph 16.3 mph 46 % 0.0 in
02:04 -4.5 °F -14.4 °F 1026.0 in East 10.1 mph 21.2 mph 46 % 0.0 in
02:09 -4.6 °F -14.5 °F 1026.0 in ENE 10.8 mph 21.2 mph 46 % 0.0 in
02:14 -4.7 °F -14.6 °F 1026.0 in ENE 8.0 mph 16.3 mph 46 % 0.0 in
02:19 -4.7 °F -14.6 °F 1026.0 in ENE 6.4 mph 16.6 mph 46 % 0.0 in
02:24 -4.7 °F -14.6 °F 1026.0 in East 6.6 mph 16.6 mph 46 % 0.0 in
02:29 -4.8 °F -14.7 °F 1026.0 in East 5.5 mph 9.7 mph 46 % 0.0 in
02:35 -4.9 °F -15.1 °F 1026.0 in East 6.1 mph 11.9 mph 45 % 0.0 in
02:40 -5.0 °F -14.8 °F 1026.0 in East 6.1 mph 15.8 mph 46 % 0.0 in
02:45 -5.0 °F -14.8 °F 1026.0 in East 6.3 mph 15.8 mph 46 % 0.0 in
02:50 -5.1 °F -14.9 °F 1026.0 in East 5.6 mph 10.1 mph 46 % 0.0 in
02:55 -5.1 °F -14.9 °F 1026.0 in East 4.7 mph 7.2 mph 46 % 0.0 in
03:00 -5.2 °F -15.1 °F 1026.0 in ENE 3.2 mph 7.2 mph 46 % 0.0 in
03:05 -5.2 °F -15.1 °F 1026.0 in ESE 3.1 mph 10.5 mph 46 % 0.0 in
03:10 -5.2 °F -15.1 °F 1026.0 in East 4.3 mph 10.8 mph 46 % 0.0 in
03:15 -5.3 °F -15.1 °F 1024.9 in ENE 5.3 mph 10.8 mph 46 % 0.0 in
03:20 -5.2 °F -15.3 °F 1024.9 in ENE 8.8 mph 17.7 mph 45 % 0.0 in
03:25 -5.1 °F -15.2 °F 1024.9 in ENE 10.9 mph 17.7 mph 45 % 0.0 in
03:30 -5.1 °F -15.2 °F 1024.9 in ENE 10.3 mph 24.8 mph 45 % 0.0 in
03:35 -5.0 °F -15.1 °F 1024.9 in NE 10.9 mph 24.8 mph 45 % 0.0 in
03:40 -5.0 °F -15.1 °F 1024.9 in NE 11.7 mph 22.4 mph 45 % 0.0 in
03:45 -5.1 °F -15.2 °F 1026.0 in NE 10.8 mph 22.4 mph 45 % 0.0 in
03:50 -5.1 °F -15.2 °F 1026.0 in NE 9.8 mph 19.5 mph 45 % 0.0 in
03:55 -5.1 °F -15.2 °F 1026.0 in NE 10.1 mph 19.1 mph 45 % 0.0 in
04:00 -5.2 °F -15.3 °F 1026.0 in NE 10.1 mph 19.1 mph 45 % 0.0 in
04:05 -5.2 °F -15.3 °F 1026.0 in NE 7.9 mph 16.6 mph 45 % 0.0 in
04:10 -5.3 °F -15.4 °F 1026.0 in NNE 6.3 mph 14.0 mph 45 % 0.0 in
04:15 -5.4 °F -15.5 °F 1026.0 in NE 7.1 mph 12.2 mph 45 % 0.0 in
04:20 -5.4 °F -15.5 °F 1026.0 in NE 7.2 mph 14.0 mph 45 % 0.0 in
04:25 -5.4 °F -15.5 °F 1026.0 in NE 8.0 mph 20.6 mph 45 % 0.0 in
04:30 -5.4 °F -15.2 °F 1026.0 in NNE 9.3 mph 20.6 mph 46 % 0.0 in
04:35 -5.4 °F -15.2 °F 1026.0 in NNE 9.0 mph 19.8 mph 46 % 0.0 in
04:40 -5.5 °F -15.3 °F 1026.0 in NNE 7.9 mph 17.7 mph 46 % 0.0 in
04:45 -5.5 °F -15.3 °F 1026.0 in NE 7.9 mph 17.2 mph 46 % 0.0 in
04:50 -5.5 °F -15.3 °F 1026.0 in NE 7.7 mph 17.2 mph 46 % 0.0 in
04:55 -5.5 °F -15.3 °F 1026.0 in ENE 7.7 mph 16.6 mph 46 % 0.0 in
05:00 -5.6 °F -15.4 °F 1027.0 in NE 7.6 mph 16.6 mph 46 % 0.0 in
05:05 -5.6 °F -15.4 °F 1027.0 in NE 7.2 mph 17.7 mph 46 % 0.0 in
05:10 -5.6 °F -15.7 °F 1027.0 in NE 7.9 mph 20.6 mph 45 % 0.0 in
05:15 -5.5 °F -15.6 °F 1027.0 in ENE 9.8 mph 20.6 mph 45 % 0.0 in
05:20 -5.6 °F -15.7 °F 1027.0 in ENE 9.2 mph 19.1 mph 45 % 0.0 in
05:30 -5.6 °F -15.4 °F 1027.0 in NE 6.1 mph 10.1 mph 46 % 0.0 in
05:35 -5.6 °F -15.4 °F 1027.0 in NE 7.2 mph 16.9 mph 46 % 0.0 in
05:40 -5.7 °F -15.5 °F 1027.0 in ENE 8.5 mph 16.9 mph 46 % 0.0 in
05:45 -5.7 °F -15.5 °F 1027.0 in ENE 6.9 mph 11.9 mph 46 % 0.0 in
05:50 -5.8 °F -15.6 °F 1027.0 in East 5.8 mph 14.0 mph 46 % 0.0 in
05:55 -5.9 °F -15.7 °F 1027.0 in East 5.5 mph 14.0 mph 46 % 0.0 in
06:00 -5.9 °F -15.7 °F 1027.0 in NE 5.6 mph 10.5 mph 46 % 0.0 in
06:05 -5.9 °F -15.7 °F 1027.0 in NE 6.6 mph 10.5 mph 46 % 0.0 in
06:10 -5.9 °F -15.7 °F 1027.0 in NE 7.2 mph 20.6 mph 46 % 0.0 in
06:15 -5.8 °F -15.6 °F 1028.0 in NE 9.0 mph 20.6 mph 46 % 0.0 in
06:20 -5.8 °F -15.6 °F 1028.0 in NE 9.0 mph 17.2 mph 46 % 0.0 in
06:25 -5.8 °F -15.8 °F 1028.0 in NE 7.4 mph 17.2 mph 45 % 0.0 in
06:30 -5.7 °F -15.8 °F 1028.0 in NNE 8.2 mph 20.1 mph 45 % 0.0 in
06:35 -5.8 °F -15.8 °F 1028.0 in NE 8.4 mph 20.1 mph 45 % 0.0 in
06:40 -5.7 °F -15.8 °F 1028.0 in ENE 8.4 mph 17.7 mph 45 % 0.0 in
06:45 -5.7 °F -15.8 °F 1028.0 in ENE 9.7 mph 17.7 mph 45 % 0.0 in
06:50 -5.7 °F -15.8 °F 1028.0 in ENE 8.8 mph 17.7 mph 45 % 0.0 in
06:55 -5.7 °F -16.1 °F 1028.0 in NE 9.0 mph 18.0 mph 44 % 0.0 in
07:00 -5.7 °F -15.8 °F 1028.0 in ENE 11.3 mph 22.7 mph 45 % 0.0 in
07:05 -5.7 °F -16.1 °F 1028.0 in NE 10.6 mph 22.7 mph 44 % 0.0 in
07:10 -5.7 °F -16.1 °F 1028.0 in NE 10.1 mph 20.9 mph 44 % 0.0 in
07:15 -5.7 °F -16.1 °F 1028.0 in NE 10.0 mph 22.7 mph 44 % 0.0 in
07:20 -5.7 °F -16.1 °F 1028.0 in NE 10.1 mph 23.8 mph 44 % 0.0 in
07:25 -5.7 °F -16.1 °F 1028.0 in NE 10.3 mph 23.8 mph 44 % 0.0 in
07:30 -5.6 °F -15.9 °F 1028.0 in NE 10.5 mph 24.8 mph 44 % 0.0 in
07:35 -5.6 °F -15.9 °F 1028.0 in NE 12.4 mph 24.8 mph 44 % 0.0 in
07:40 -5.6 °F -15.9 °F 1028.0 in ENE 11.7 mph 20.9 mph 44 % 0.0 in
07:45 -5.6 °F -15.9 °F 1028.0 in NE 10.6 mph 20.6 mph 44 % 0.0 in
07:50 -5.6 °F -15.9 °F 1028.0 in NE 10.0 mph 20.6 mph 44 % 0.0 in
07:55 -5.6 °F -16.2 °F 1028.0 in NE 7.9 mph 19.8 mph 43 % 0.0 in
08:00 -5.6 °F -16.2 °F 1028.0 in NE 8.7 mph 17.7 mph 43 % 0.0 in
08:05 -5.6 °F -16.2 °F 1028.0 in NE 9.2 mph 20.6 mph 43 % 0.0 in
08:10 -5.6 °F -16.2 °F 1029.0 in NE 10.5 mph 20.6 mph 43 % 0.0 in
08:15 -5.6 °F -16.2 °F 1029.0 in NE 12.2 mph 28.5 mph 43 % 0.0 in
08:20 -5.5 °F -16.1 °F 1029.0 in ENE 14.2 mph 28.5 mph 43 % 0.0 in
08:25 -5.5 °F -16.1 °F 1028.0 in ENE 15.8 mph 28.5 mph 43 % 0.0 in
08:30 -5.5 °F -16.1 °F 1028.0 in NE 12.4 mph 21.2 mph 43 % 0.0 in
08:35 -5.5 °F -16.1 °F 1028.0 in NE 9.0 mph 15.8 mph 43 % 0.0 in
08:40 -5.4 °F -16.1 °F 1029.0 in ENE 9.7 mph 24.5 mph 43 % 0.0 in
08:45 -5.3 °F -15.9 °F 1029.0 in NE 11.1 mph 24.5 mph 43 % 0.0 in
08:50 -5.2 °F -15.8 °F 1029.0 in NE 11.6 mph 24.5 mph 43 % 0.0 in
08:55 -5.2 °F -15.8 °F 1029.0 in ENE 11.3 mph 24.5 mph 43 % 0.0 in
09:00 -5.2 °F -15.8 °F 1029.0 in ENE 8.8 mph 21.2 mph 43 % 0.0 in
09:05 -5.1 °F -15.8 °F 1029.0 in NE 10.5 mph 24.5 mph 43 % 0.0 in
09:10 -5.1 °F -15.8 °F 1029.0 in NNE 12.1 mph 24.5 mph 43 % 0.0 in
09:15 -5.0 °F -15.7 °F 1029.0 in NNE 10.5 mph 23.3 mph 43 % 0.0 in
09:20 -5.0 °F -15.7 °F 1029.0 in NE 9.8 mph 23.8 mph 43 % 0.0 in
09:25 -5.0 °F -15.7 °F 1029.0 in NE 8.7 mph 23.8 mph 43 % 0.0 in
09:30 -4.9 °F -15.9 °F 1029.0 in ENE 9.7 mph 23.8 mph 42 % 0.0 in
09:35 -4.9 °F -15.9 °F 1029.0 in NE 8.7 mph 23.8 mph 42 % 0.0 in
09:40 -4.8 °F -15.8 °F 1030.0 in NE 8.0 mph 32.0 mph 42 % 0.0 in
09:46 -4.8 °F -15.8 °F 1030.0 in NE 12.4 mph 35.6 mph 42 % 0.0 in
09:51 -4.7 °F -15.7 °F 1030.0 in NE 14.6 mph 24.8 mph 42 % 0.0 in
09:56 -4.7 °F -15.7 °F 1030.0 in ENE 12.7 mph 24.8 mph 42 % 0.0 in
10:01 -4.6 °F -15.6 °F 1030.0 in ENE 12.6 mph 23.8 mph 42 % 0.0 in
10:06 -4.5 °F -15.5 °F 1030.0 in ENE 15.0 mph 37.8 mph 42 % 0.0 in
10:11 -4.5 °F -15.5 °F 1031.0 in ENE 16.3 mph 37.8 mph 42 % 0.0 in
10:16 -4.5 °F -15.5 °F 1031.0 in NE 16.4 mph 36.4 mph 42 % 0.0 in
10:21 -4.4 °F -15.4 °F 1031.0 in NE 13.8 mph 36.4 mph 42 % 0.0 in
10:26 -4.4 °F -15.4 °F 1030.0 in NNE 10.0 mph 27.4 mph 42 % 0.0 in
10:31 -4.3 °F -15.3 °F 1030.0 in North 8.7 mph 15.4 mph 42 % 0.0 in
10:36 -4.2 °F -15.2 °F 1030.0 in NNE 9.2 mph 19.8 mph 42 % 0.0 in
10:41 -4.1 °F -15.1 °F 1030.0 in NE 10.1 mph 20.1 mph 42 % 0.0 in
10:46 -4.0 °F -15.1 °F 1030.0 in ENE 11.3 mph 41.0 mph 42 % 0.0 in
10:51 -3.9 °F -15.2 °F 1030.0 in ENE 10.8 mph 41.0 mph 41 % 0.0 in
10:56 -3.8 °F -15.2 °F 1030.0 in ENE 11.6 mph 21.2 mph 41 % 0.0 in
11:01 -3.7 °F -15.1 °F 1030.0 in NE 11.4 mph 20.9 mph 41 % 0.0 in
11:06 -3.6 °F -15.0 °F 1030.0 in ENE 10.3 mph 20.6 mph 41 % 0.0 in
11:11 -3.6 °F -15.3 °F 1030.0 in ENE 13.0 mph 23.8 mph 40 % 0.0 in
11:16 -3.5 °F -14.9 °F 1030.0 in ENE 14.5 mph 23.8 mph 41 % 0.0 in
11:21 -3.4 °F -15.1 °F 1030.0 in ENE 11.9 mph 20.9 mph 40 % 0.0 in
11:26 -3.4 °F -15.4 °F 1030.0 in NE 11.9 mph 25.9 mph 39 % 0.0 in
11:31 -3.4 °F -15.1 °F 1030.0 in ENE 12.6 mph 25.9 mph 40 % 0.0 in
11:36 -3.4 °F -15.1 °F 1030.0 in NE 10.3 mph 27.4 mph 40 % 0.0 in
11:41 -3.3 °F -14.7 °F 1030.0 in NE 8.2 mph 27.4 mph 41 % 0.0 in
11:46 -3.6 °F -15.6 °F 1030.0 in North 8.8 mph 19.5 mph 39 % 0.0 in
11:51 -3.7 °F -16.0 °F 1030.0 in NNE 12.2 mph 25.9 mph 38 % 0.0 in
11:56 -3.7 °F -15.7 °F 1029.0 in NE 11.4 mph 25.9 mph 39 % 0.0 in
12:01 -3.7 °F -15.7 °F 1029.0 in North 8.5 mph 20.9 mph 39 % 0.0 in
12:06 -3.8 °F -16.4 °F 1029.0 in NNE 8.7 mph 26.7 mph 37 % 0.0 in
12:11 -3.7 °F -16.0 °F 1029.0 in NNE 11.4 mph 27.4 mph 38 % 0.0 in
12:16 -3.7 °F -16.3 °F 1029.0 in NE 12.7 mph 27.4 mph 37 % 0.0 in
12:21 -3.5 °F -16.4 °F 1029.0 in NE 12.9 mph 31.7 mph 36 % 0.0 in
12:26 -3.3 °F -16.3 °F 1029.0 in NE 14.3 mph 31.7 mph 36 % 0.0 in
12:31 -3.1 °F -15.8 °F 1029.0 in ENE 14.0 mph 27.4 mph 37 % 0.0 in
12:36 -2.9 °F -15.9 °F 1029.0 in ENE 13.2 mph 21.9 mph 36 % 0.0 in
12:41 -3.0 °F -16.3 °F 1029.0 in NE 12.4 mph 21.9 mph 35 % 0.0 in
12:46 -3.0 °F -16.3 °F 1029.0 in ENE 14.3 mph 33.1 mph 35 % 0.0 in
12:51 -3.3 °F -16.9 °F 1029.0 in ENE 19.0 mph 35.2 mph 34 % 0.0 in
12:56 -3.5 °F -17.1 °F 1029.0 in NE 15.3 mph 35.2 mph 34 % 0.0 in
13:01 -3.4 °F -17.1 °F 1029.0 in NNE 10.8 mph 25.6 mph 34 % 0.0 in
13:06 -3.3 °F -16.6 °F 1029.0 in NE 12.6 mph 25.6 mph 35 % 0.0 in
13:11 -3.2 °F -16.5 °F 1029.0 in NE 11.6 mph 25.6 mph 35 % 0.0 in
13:16 -3.3 °F -16.9 °F 1029.0 in ENE 10.1 mph 42.2 mph 34 % 0.0 in
13:21 -3.3 °F -16.9 °F 1029.0 in ENE 14.5 mph 42.2 mph 34 % 0.0 in
13:26 -3.3 °F -16.9 °F 1028.0 in ENE 15.6 mph 31.7 mph 34 % 0.0 in
13:31 -3.3 °F -16.9 °F 1028.0 in NNE 12.4 mph 24.8 mph 34 % 0.0 in
13:36 -3.3 °F -16.9 °F 1028.0 in NE 11.1 mph 24.8 mph 34 % 0.0 in
13:41 -3.3 °F -17.3 °F 1028.0 in ENE 12.7 mph 31.7 mph 33 % 0.0 in
13:46 -3.3 °F -16.9 °F 1028.0 in ENE 14.8 mph 31.7 mph 34 % 0.0 in
13:51 -3.3 °F -16.6 °F 1028.0 in ENE 11.9 mph 31.7 mph 35 % 0.0 in
13:56 -3.3 °F -16.9 °F 1028.0 in ENE 11.1 mph 19.8 mph 34 % 0.0 in
14:02 -3.3 °F -16.9 °F 1028.0 in ENE 11.6 mph 20.1 mph 34 % 0.0 in
14:07 -3.2 °F -17.2 °F 1028.0 in ENE 12.6 mph 33.8 mph 33 % 0.0 in
14:12 -3.2 °F -16.9 °F 1028.0 in NE 12.6 mph 33.8 mph 34 % 0.0 in
14:17 -3.1 °F -16.8 °F 1028.0 in NE 12.1 mph 23.0 mph 34 % 0.0 in
14:22 -3.0 °F -16.7 °F 1028.0 in ENE 13.5 mph 25.3 mph 34 % 0.0 in
14:27 -3.0 °F -16.7 °F 1028.0 in NE 10.3 mph 25.3 mph 34 % 0.0 in
14:32 -3.1 °F -17.1 °F 1028.0 in ENE 9.8 mph 17.7 mph 33 % 0.0 in
14:37 -3.2 °F -17.2 °F 1028.0 in ENE 13.2 mph 22.4 mph 33 % 0.0 in
14:42 -3.1 °F -16.8 °F 1028.0 in East 12.1 mph 22.4 mph 34 % 0.0 in
14:47 -3.0 °F -16.7 °F 1028.0 in East 10.3 mph 20.9 mph 34 % 0.0 in
14:52 -3.0 °F -16.7 °F 1028.0 in East 10.6 mph 20.9 mph 34 % 0.0 in
14:57 -3.1 °F -17.1 °F 1028.0 in ENE 10.6 mph 23.0 mph 33 % 0.0 in
15:02 -3.1 °F -17.1 °F 1028.0 in ENE 9.3 mph 23.0 mph 33 % 0.0 in
15:07 -3.1 °F -16.8 °F 1028.0 in ENE 8.5 mph 20.9 mph 34 % 0.0 in
15:12 -3.3 °F -17.7 °F 1028.0 in NE 7.6 mph 20.9 mph 32 % 0.0 in
15:17 -3.4 °F -17.1 °F 1028.0 in NE 5.8 mph 15.8 mph 34 % 0.0 in
15:22 -3.5 °F -17.5 °F 1028.0 in NE 7.2 mph 17.2 mph 33 % 0.0 in
15:27 -3.6 °F -17.6 °F 1029.0 in NE 8.8 mph 17.2 mph 33 % 0.0 in
15:32 -3.7 °F -18.1 °F 1029.0 in NE 8.4 mph 16.3 mph 32 % 0.0 in
15:37 -3.7 °F -18.1 °F 1029.0 in NE 7.1 mph 15.4 mph 32 % 0.0 in
15:42 -3.8 °F -18.1 °F 1029.0 in NE 5.8 mph 15.4 mph 32 % 0.0 in
15:47 -3.9 °F -18.2 °F 1029.0 in NE 6.1 mph 10.5 mph 32 % 0.0 in
15:52 -3.9 °F -17.8 °F 1029.0 in East 7.6 mph 13.7 mph 33 % 0.0 in
15:57 -4.0 °F -17.9 °F 1029.0 in East 6.9 mph 13.7 mph 33 % 0.0 in
16:02 -4.1 °F -18.4 °F 1029.0 in ENE 5.8 mph 16.3 mph 32 % 0.0 in
16:07 -4.1 °F -18.0 °F 1029.0 in ENE 8.5 mph 17.7 mph 33 % 0.0 in
16:12 -4.1 °F -18.0 °F 1029.0 in NE 10.6 mph 23.8 mph 33 % 0.0 in
16:17 -4.2 °F -18.5 °F 1029.0 in NE 11.7 mph 24.8 mph 32 % 0.0 in
16:22 -4.2 °F -19.6 °F 1029.0 in NNE 11.1 mph 24.8 mph 29 % 0.0 in
16:27 -4.3 °F -18.6 °F 1029.0 in NE 9.8 mph 25.6 mph 32 % 0.0 in
16:32 -4.4 °F -18.7 °F 1029.0 in ENE 9.2 mph 25.6 mph 32 % 0.0 in
16:37 -4.5 °F -18.7 °F 1029.0 in NNE 7.9 mph 17.2 mph 32 % 0.0 in
16:42 -4.5 °F -19.9 °F 1029.0 in NE 11.7 mph 41.7 mph 29 % 0.0 in
16:47 -4.5 °F -18.7 °F 1029.0 in ENE 10.5 mph 41.7 mph 32 % 0.0 in
16:53 -4.6 °F -18.8 °F 1029.0 in ENE 10.9 mph 20.9 mph 32 % 0.0 in
16:57 -4.6 °F -18.8 °F 1029.0 in ENE 11.9 mph 20.9 mph 32 % 0.0 in
17:02 -4.6 °F -18.8 °F 1029.0 in ENE 10.0 mph 16.6 mph 32 % 0.0 in
17:08 -4.7 °F -18.9 °F 1029.0 in ENE 9.2 mph 16.3 mph 32 % 0.0 in
17:13 -4.8 °F -18.7 °F 1029.0 in ENE 7.7 mph 16.3 mph 33 % 0.0 in
17:18 -4.8 °F -19.0 °F 1029.0 in ENE 9.7 mph 20.9 mph 32 % 0.0 in
17:23 -4.8 °F -18.7 °F 1029.0 in ENE 9.0 mph 20.9 mph 33 % 0.0 in
17:28 -4.9 °F -18.7 °F 1029.0 in NE 4.7 mph 16.9 mph 33 % 0.0 in
17:33 -5.1 °F -18.9 °F 1029.0 in NE 3.1 mph 6.1 mph 33 % 0.0 in
17:38 -5.1 °F -18.9 °F 1029.0 in ENE 4.0 mph 10.1 mph 33 % 0.0 in
17:43 -5.1 °F -18.9 °F 1030.0 in NE 5.8 mph 12.6 mph 33 % 0.0 in
17:48 -5.1 °F -18.9 °F 1030.0 in ENE 6.3 mph 12.6 mph 33 % 0.0 in
17:53 -5.1 °F -18.9 °F 1030.0 in ENE 6.1 mph 19.8 mph 33 % 0.0 in
17:58 -5.1 °F -18.6 °F 1030.0 in ENE 8.0 mph 19.8 mph 34 % 0.0 in
18:03 -5.1 °F -18.6 °F 1030.0 in NE 9.0 mph 14.0 mph 34 % 0.0 in
18:08 -5.2 °F -18.7 °F 1030.0 in NE 6.9 mph 14.0 mph 34 % 0.0 in
18:13 -5.3 °F -18.7 °F 1030.0 in East 5.5 mph 12.2 mph 34 % 0.0 in
18:18 -5.4 °F -18.8 °F 1030.0 in East 6.4 mph 10.1 mph 34 % 0.0 in
18:23 -5.5 °F -18.6 °F 1030.0 in East 5.8 mph 10.1 mph 35 % 0.0 in
18:28 -5.6 °F -18.7 °F 1030.0 in ESE 5.6 mph 11.1 mph 35 % 0.0 in
18:33 -5.6 °F -18.7 °F 1030.0 in East 6.4 mph 14.3 mph 35 % 0.0 in
18:38 -5.7 °F -18.8 °F 1030.0 in East 5.5 mph 14.3 mph 35 % 0.0 in
18:43 -5.7 °F -18.8 °F 1030.0 in ENE 5.5 mph 11.9 mph 35 % 0.0 in
18:48 -5.8 °F -18.8 °F 1030.0 in East 5.1 mph 11.9 mph 35 % 0.0 in
18:53 -5.9 °F -18.9 °F 1030.0 in ENE 4.5 mph 11.6 mph 35 % 0.0 in
18:58 -5.8 °F -18.8 °F 1030.0 in NE 6.8 mph 19.8 mph 35 % 0.0 in
19:03 -5.9 °F -18.9 °F 1030.0 in ENE 7.4 mph 19.8 mph 35 % 0.0 in
19:08 -5.8 °F -18.8 °F 1030.0 in ENE 7.4 mph 12.2 mph 35 % 0.0 in
19:14 -5.8 °F -18.5 °F 1030.0 in East 7.6 mph 12.2 mph 36 % 0.0 in
19:19 -5.9 °F -18.6 °F 1030.0 in ESE 7.1 mph 14.8 mph 36 % 0.0 in
19:24 -6.0 °F -18.7 °F 1030.0 in ESE 6.4 mph 14.8 mph 36 % 0.0 in
19:29 -6.0 °F -18.4 °F 1029.0 in ESE 5.8 mph 10.5 mph 37 % 0.0 in
19:34 -6.1 °F -18.4 °F 1029.0 in ESE 6.8 mph 10.5 mph 37 % 0.0 in
19:39 -6.2 °F -18.6 °F 1029.0 in ESE 5.0 mph 9.7 mph 37 % 0.0 in
19:44 -6.3 °F -18.6 °F 1029.0 in ESE 3.4 mph 10.5 mph 37 % 0.0 in
19:49 -6.3 °F -18.6 °F 1029.0 in ESE 4.7 mph 13.7 mph 37 % 0.0 in
19:54 -6.4 °F -18.7 °F 1029.0 in ESE 7.6 mph 13.7 mph 37 % 0.0 in
19:59 -6.4 °F -18.7 °F 1030.0 in ESE 8.4 mph 13.7 mph 37 % 0.0 in
20:04 -6.5 °F -18.8 °F 1030.0 in ESE 6.8 mph 14.0 mph 37 % 0.0 in
20:09 -6.6 °F -18.9 °F 1030.0 in ESE 5.6 mph 14.0 mph 37 % 0.0 in
20:14 -6.6 °F -18.6 °F 1029.0 in SE 5.8 mph 9.7 mph 38 % 0.0 in
20:19 -7.0 °F -18.7 °F 1029.0 in ESE 4.5 mph 9.7 mph 39 % 0.0 in
20:24 -7.2 °F -19.1 °F 1029.0 in NW 2.9 mph 5.8 mph 38 % 0.0 in
20:29 -7.4 °F -19.0 °F 1029.0 in WSW 2.7 mph 5.5 mph 39 % 0.0 in
20:34 -7.7 °F -19.3 °F 1029.0 in WSW 3.4 mph 5.8 mph 39 % 0.0 in
20:39 -8.1 °F -19.3 °F 1029.0 in West 4.5 mph 6.4 mph 40 % 0.0 in
20:44 -8.1 °F -19.1 °F 1029.0 in SW 4.8 mph 6.4 mph 41 % 0.0 in
20:49 -8.1 °F -19.1 °F 1029.0 in SSW 5.3 mph 7.9 mph 41 % 0.0 in
20:54 -8.3 °F -19.2 °F 1029.0 in SSW 4.8 mph 7.9 mph 41 % 0.0 in
20:59 -8.4 °F -19.3 °F 1030.0 in SSW 4.0 mph 6.9 mph 41 % 0.0 in
21:04 -8.4 °F -19.3 °F 1030.0 in SSW 4.7 mph 8.7 mph 41 % 0.0 in
21:09 -8.4 °F -19.1 °F 1030.0 in SSW 4.5 mph 8.7 mph 42 % 0.0 in
21:14 -8.5 °F -19.2 °F 1029.0 in SSW 4.0 mph 6.9 mph 42 % 0.0 in
21:19 -8.6 °F -18.9 °F 1029.0 in SW 4.2 mph 6.9 mph 43 % 0.0 in
21:24 -8.9 °F -19.2 °F 1029.0 in WSW 2.9 mph 6.9 mph 43 % 0.0 in
21:29 -9.0 °F -19.1 °F 1030.0 in SW 3.4 mph 6.9 mph 44 % 0.0 in
21:34 -8.9 °F -19.2 °F 1030.0 in SSW 6.1 mph 10.5 mph 43 % 0.0 in
21:39 -8.6 °F -18.9 °F 1030.0 in SW 7.7 mph 10.5 mph 43 % 0.0 in
21:44 -8.6 °F -18.9 °F 1030.0 in SW 6.3 mph 10.5 mph 43 % 0.0 in
21:49 -8.6 °F -18.9 °F 1030.0 in WSW 4.0 mph 6.1 mph 43 % 0.0 in
21:54 -8.8 °F -19.2 °F 1030.0 in SW 3.7 mph 8.7 mph 43 % 0.0 in
21:59 -8.9 °F -18.9 °F 1030.0 in SSW 4.8 mph 8.7 mph 44 % 0.0 in
22:04 -9.1 °F -19.2 °F 1030.0 in WSW 3.7 mph 6.9 mph 44 % 0.0 in
22:09 -9.2 °F -19.2 °F 1030.0 in NW 2.1 mph 6.4 mph 44 % 0.0 in
22:14 -9.2 °F -19.2 °F 1030.0 in SSE 3.4 mph 6.9 mph 44 % 0.0 in
22:19 -9.2 °F -19.2 °F 1030.0 in SSE 4.7 mph 6.9 mph 44 % 0.0 in
22:24 -9.0 °F -19.1 °F 1030.0 in SSE 4.8 mph 10.5 mph 44 % 0.0 in
22:29 -8.7 °F -18.8 °F 1031.0 in South 5.3 mph 10.5 mph 44 % 0.0 in
22:34 -8.8 °F -18.9 °F 1031.0 in SSW 5.5 mph 9.7 mph 44 % 0.0 in
22:39 -8.9 °F -18.9 °F 1031.0 in WSW 5.1 mph 9.7 mph 44 % 0.0 in
22:44 -9.0 °F -19.1 °F 1031.0 in WSW 4.8 mph 6.9 mph 44 % 0.0 in
22:49 -9.1 °F -19.2 °F 1031.0 in SSW 3.9 mph 6.9 mph 44 % 0.0 in
22:55 -9.2 °F -19.2 °F 1031.0 in SSW 3.7 mph 6.4 mph 44 % 0.0 in
23:00 -9.3 °F -19.1 °F 1031.0 in SSW 3.2 mph 6.4 mph 45 % 0.0 in
23:05 -9.5 °F -19.2 °F 1031.0 in SSE 1.9 mph 5.5 mph 45 % 0.0 in
23:10 -9.6 °F -19.3 °F 1031.0 in SSW 3.4 mph 6.9 mph 45 % 0.0 in
23:15 -9.8 °F -19.5 °F 1031.0 in West 4.0 mph 6.9 mph 45 % 0.0 in
23:20 -9.8 °F -19.5 °F 1031.0 in WNW 3.5 mph 6.9 mph 45 % 0.0 in
23:25 -9.9 °F -19.6 °F 1031.0 in WSW 4.2 mph 6.9 mph 45 % 0.0 in
23:30 -10.0 °F -19.7 °F 1031.0 in West 4.3 mph 6.9 mph 45 % 0.0 in
23:35 -10.1 °F -19.8 °F 1031.0 in West 3.5 mph 5.5 mph 45 % 0.0 in
23:40 -10.2 °F -19.9 °F 1031.0 in SW 2.9 mph 5.0 mph 45 % 0.0 in
23:45 -10.3 °F -20.0 °F 1031.0 in SSW 1.8 mph 5.0 mph 45 % 0.0 in
23:50 -10.4 °F -20.1 °F 1031.0 in SW 1.8 mph 4.7 mph 45 % 0.0 in
23:55 -10.4 °F -20.1 °F 1031.0 in NNW 2.4 mph 5.0 mph 45 % 0.0 in
Vremenska postaja Senovo
Podatki zbrani iz Weather Underground - 3 mb

Script developed by  Jim McMurry - jmcmurry@mwt.net Adapted for the template by  Wim van der Kuil - Leuven-Template.eu

Vremenski podatki so objavljeni na:

European Weather Network

WeatherCloud

Weather Underground

AWEKAS

HAMweather, WeatherForYou, PWS Weather

MapView

Geostik

Slovenia weather network

Oprema, ki se uporablja:

Vremenski program
Cumulus

Vremenski server
Asus

Cumulus

Asus